createdAt,value
2022-11-02T00:12:16.636Z,98519.44
2022-11-02T00:32:19.057Z,98530.84
2022-11-02T00:52:21.487Z,98524.78
2022-11-02T01:12:24.177Z,98541.75
2022-11-02T01:32:26.597Z,98543.34
2022-11-02T01:52:29.336Z,98543.06
2022-11-02T02:12:31.818Z,98546.41
2022-11-02T02:32:34.205Z,98537.00
2022-11-02T02:52:36.891Z,98551.88
2022-11-02T03:12:39.613Z,98571.19
2022-11-02T03:32:42.027Z,98558.78
2022-11-02T03:52:44.586Z,98576.00
2022-11-02T04:13:06.586Z,98587.81
2022-11-02T04:33:28.286Z,98579.69
2022-11-02T04:53:31.139Z,98595.78
2022-11-02T05:13:33.785Z,98589.66
2022-11-02T05:33:36.204Z,98609.13
2022-11-02T05:53:39.646Z,98628.06
2022-11-02T06:13:42.093Z,98634.50
2022-11-02T06:33:44.550Z,98642.41
2022-11-02T06:53:47.073Z,98647.31
2022-11-02T07:13:49.488Z,98648.47
2022-11-02T07:33:51.962Z,98660.53
2022-11-02T07:53:54.569Z,98670.09
2022-11-02T08:13:57.219Z,98651.44
2022-11-02T08:33:59.912Z,98642.59
2022-11-02T08:54:02.449Z,98646.44
2022-11-02T09:14:05.291Z,98634.66
2022-11-02T09:34:07.744Z,98620.44
2022-11-02T09:54:13.354Z,98623.19
2022-11-02T10:14:19.585Z,98612.78
2022-11-02T10:34:21.999Z,98603.88
2022-11-02T10:54:29.435Z,98600.59
2022-11-02T11:34:59.592Z,98579.75
2022-11-02T11:55:02.558Z,98583.25
2022-11-02T12:15:06.999Z,98566.81
2022-11-02T12:35:27.814Z,98557.06
2022-11-02T12:55:37.272Z,98559.91
2022-11-02T13:15:41.145Z,98547.56
2022-11-02T13:35:44.409Z,98547.13
2022-11-02T13:55:46.930Z,98548.44
2022-11-02T14:15:49.503Z,98557.31
2022-11-02T14:35:51.933Z,98565.31
2022-11-02T14:55:54.468Z,98555.16
2022-11-02T15:15:57.483Z,98559.84
2022-11-02T15:35:59.905Z,98566.06
2022-11-02T15:56:02.507Z,98588.12
2022-11-02T16:16:05.110Z,98620.22
2022-11-02T16:36:07.644Z,98623.28
2022-11-02T16:56:11.666Z,98649.22
2022-11-02T17:16:14.383Z,98668.97
2022-11-02T17:36:17.232Z,98682.75
2022-11-02T17:56:19.905Z,98700.25
2022-11-02T18:16:22.603Z,98689.50
2022-11-02T18:36:25.149Z,98708.25
2022-11-02T18:56:27.792Z,98711.59
2022-11-02T19:16:30.526Z,98728.53
2022-11-02T19:36:33.027Z,98729.50
2022-11-02T19:56:35.693Z,98749.28
2022-11-02T20:16:38.445Z,98768.53
2022-11-02T20:36:41.378Z,98778.34
2022-11-02T20:56:44.260Z,98781.34
2022-11-02T21:16:47.031Z,98782.75
2022-11-02T21:36:53.252Z,98787.47
2022-11-02T21:56:55.893Z,98800.25
2022-11-02T22:16:59.067Z,98803.41
2022-11-02T22:37:21.716Z,98796.31
2022-11-02T22:57:26.683Z,98818.13
2022-11-02T23:17:29.177Z,98836.66
2022-11-02T23:37:32.106Z,98824.88
2022-11-02T23:57:34.653Z,98847.03
